CYPH

Inukjuak Airport

Inukjuak, Quebec, Canada
METAR CYPH 140036Z AUTO 19018KT 3SM -SN SCT010 OVC017 M02/M03 A2970 RMK SLP062
Observed Flight Rules
Dec-14 @ 00:36 UTC (9 minutes ago) Marginal Visual Flight Rules
Wind Visibility Clouds Conditions
190° at 18 knots 3 miles
  • Scattered at 1,000' AGL
  • Overcast at 1,700' AGL
  • Light Snow
Temperatures Readings
Current -2°C / 28°F
Dewpoint -3°C / 27°F
Humidity 93%
Altimeter 29.7" Hg
Pressure 1006.2 hPa
Elevation 3
METAR CYPH 140036Z AUTO 19018KT 3SM -SN SCT010 OVC017 M02/M03 A2970 RMK SLP062
Observed Flight Rules
Dec-14 @ 00:36 UTC
(9 minutes ago)
MVFR
Wind Visibility
190° at 18 knots 3 miles
Clouds
  • Scattered at 1,000' AGL
  • Overcast at 1,700' AGL
Conditions
  • Light Snow
Temperature Dewpoint
-2°C / 28°F -3°C / 27°F
Humidity Altimeter Pressure
93% 29.7" Hg 1006.2 hPa